Time;durP1;ratioP1;P1;durP2;ratioP2;P2;SDS_P1;SDS_P2;PMS_P1;PMS_P2;Temp;Humidity;BMP_temperature;BMP_pressure;BME280_temperature;BME280_humidity;BME280_pressure;Samples;Min_cycle;Max_cycle;Signal;HPM_P1;HPM_P2
2022/03/19 00:00:29;;;;;;;;;6.50;6.50;;;;;11.70;37.50;103408.75;2448824;28;46389;-80
2022/03/19 00:01:39;;;;;;;;;7.00;7.00;;;;;11.70;37.71;103416.66;2448612;28;45506;-80
2022/03/19 00:02:50;;;;;;;;;7.25;7.25;;;;;11.68;37.71;103418.41;2446230;28;46456;-80
2022/03/19 00:04:00;;;;;;;;;6.50;6.50;;;;;11.66;37.64;103411.38;2443544;28;45523;-80
2022/03/19 00:05:11;;;;;;;;;6.75;6.75;;;;;11.62;37.79;103409.59;2448540;28;46041;-80
2022/03/19 00:06:21;;;;;;;;;8.75;5.50;;;;;11.59;37.39;103410.47;2449969;28;46316;-81
2022/03/19 00:07:32;;;;;;;;;5.50;5.50;;;;;11.56;38.03;103405.16;2448952;28;45406;-81
2022/03/19 00:08:43;;;;;;;;;7.00;6.50;;;;;11.54;37.81;103407.81;2450667;28;45397;-83
2022/03/19 00:09:56;;;;;;;;;5.50;5.50;;;;;11.54;37.90;103407.81;2449678;28;45675;-83
2022/03/19 00:11:07;;;;;;;;;9.00;6.00;;;;;11.55;37.84;103414.84;2446803;28;45463;-81
2022/03/19 00:12:18;;;;;;;;;7.75;6.25;;;;;11.55;37.97;103411.31;2441366;28;45439;-81
2022/03/19 00:13:28;;;;;;;;;7.50;6.50;;;;;11.53;38.66;103399.91;2447587;28;45279;-81
2022/03/19 00:14:39;;;;;;;;;5.75;5.75;;;;;11.54;38.16;103404.28;2445157;27;46133;-80
2022/03/19 00:15:50;;;;;;;;;11.00;6.50;;;;;11.54;38.32;103401.66;2451405;27;45369;-80
2022/03/19 00:17:00;;;;;;;;;5.25;5.25;;;;;11.54;38.75;103405.16;2445313;27;45403;-80
2022/03/19 00:18:11;;;;;;;;;6.25;5.50;;;;;11.53;38.24;103398.13;2441767;28;45231;-80
2022/03/19 00:19:21;;;;;;;;;7.75;6.25;;;;;11.54;37.64;103399.91;2449635;28;46090;-80
2022/03/19 00:20:35;;;;;;;;;5.50;5.50;;;;;11.53;38.04;103407.81;2445242;27;45219;-80
2022/03/19 00:21:45;;;;;;;;;5.75;5.50;;;;;11.53;38.44;103407.81;2441314;28;45321;-80
2022/03/19 00:22:56;;;;;;;;;7.25;5.75;;;;;11.52;38.10;103403.41;2444302;28;44701;-80
2022/03/19 00:24:06;;;;;;;;;6.00;6.00;;;;;11.48;37.84;103403.38;2442142;28;45493;-80
2022/03/19 00:25:17;;;;;;;;;6.75;6.75;;;;;11.47;37.71;103406.00;2451288;28;45369;-80
2022/03/19 00:26:27;;;;;;;;;8.25;5.50;;;;;11.42;37.75;103394.56;2444169;27;45366;-80
2022/03/19 00:27:40;;;;;;;;;8.00;6.00;;;;;11.44;37.71;103404.22;2441469;28;45149;-80
2022/03/19 00:28:51;;;;;;;;;7.00;6.00;;;;;11.43;37.76;103413.00;2441028;28;46236;-80
2022/03/19 00:30:01;;;;;;;;;7.00;6.00;;;;;11.41;38.12;103406.84;2441411;28;44686;-80
2022/03/19 00:31:11;;;;;;;;;8.75;8.00;;;;;11.42;37.66;103399.81;2441174;28;46596;-80
2022/03/19 00:32:22;;;;;;;;;9.75;7.50;;;;;11.37;38.05;103402.44;2441454;28;45215;-80
2022/03/19 00:33:32;;;;;;;;;8.25;8.00;;;;;11.36;38.23;103400.66;2449835;28;46211;-80
2022/03/19 00:34:43;;;;;;;;;8.50;6.50;;;;;11.36;38.43;103398.91;2442927;27;44670;-82
2022/03/19 00:35:53;;;;;;;;;9.00;7.50;;;;;11.36;37.89;103398.91;2441476;28;45215;-82
2022/03/19 00:37:04;;;;;;;;;8.00;6.25;;;;;11.34;37.83;103397.13;2440542;28;44660;-82
2022/03/19 00:38:14;;;;;;;;;8.25;8.00;;;;;11.33;37.71;103403.28;2440681;28;45326;-82
2022/03/19 00:39:25;;;;;;;;;9.75;7.25;;;;;11.32;38.01;103402.41;2441502;28;44545;-82
2022/03/19 00:40:35;;;;;;;;;8.75;8.25;;;;;11.31;38.15;103395.38;2441163;28;46222;-82
2022/03/19 00:41:46;;;;;;;;;7.25;5.50;;;;;11.30;37.93;103403.25;2441305;28;45308;-82
2022/03/19 00:42:56;;;;;;;;;7.00;7.00;;;;;11.29;37.73;103399.75;2443934;28;46285;-82
2022/03/19 00:44:07;;;;;;;;;8.00;4.75;;;;;11.26;37.84;103397.06;2441385;28;45314;-82
2022/03/19 00:45:18;;;;;;;;;7.25;6.00;;;;;11.24;37.39;103399.72;2441119;28;45487;-81
2022/03/19 00:46:28;;;;;;;;;6.00;6.00;;;;;11.24;38.19;103397.09;2441337;28;45284;-83
2022/03/19 00:47:39;;;;;;;;;7.75;7.00;;;;;11.23;37.76;103397.97;2441207;28;45348;-83
2022/03/19 00:48:49;;;;;;;;;7.50;5.00;;;;;11.21;37.95;103398.81;2441215;28;45425;-83
2022/03/19 00:49:59;;;;;;;;;8.00;7.75;;;;;11.21;38.12;103398.81;2441143;28;45580;-82
2022/03/19 00:51:10;;;;;;;;;9.75;7.25;;;;;11.22;37.76;103398.81;2450863;28;45340;-83
2022/03/19 00:52:20;;;;;;;;;7.25;7.25;;;;;11.22;37.85;103398.81;2443221;27;46429;-83
2022/03/19 00:53:31;;;;;;;;;8.75;6.25;;;;;11.19;38.28;103396.16;2441294;28;44855;-83
2022/03/19 00:54:41;;;;;;;;;7.50;6.00;;;;;11.18;37.85;103389.16;2440801;28;46550;-83
2022/03/19 00:55:51;;;;;;;;;5.50;5.50;;;;;11.18;37.47;103391.78;2442325;28;45154;-83
2022/03/19 00:57:02;;;;;;;;;8.00;5.75;;;;;11.14;37.75;103392.59;2441084;28;46405;-83
2022/03/19 00:58:12;;;;;;;;;6.25;6.00;;;;;11.10;37.76;103389.09;2441130;28;45236;-83
2022/03/19 00:59:23;;;;;;;;;7.75;7.75;;;;;11.10;37.91;103388.19;2441147;28;45169;-84
2022/03/19 01:00:33;;;;;;;;;8.50;8.50;;;;;11.08;37.72;103384.69;2447164;28;45214;-84
2022/03/19 01:01:43;;;;;;;;;10.00;8.00;;;;;11.11;37.87;103389.97;2450854;27;45311;-82
2022/03/19 01:02:55;;;;;;;;;10.00;8.25;;;;;11.08;37.81;103382.06;2449675;27;45215;-83
2022/03/19 01:04:06;;;;;;;;;5.00;5.00;;;;;11.07;37.94;103386.44;2442602;27;46300;-83
2022/03/19 01:05:17;;;;;;;;;7.25;6.00;;;;;11.09;38.02;103386.44;2441365;28;45219;-83
2022/03/19 01:06:27;;;;;;;;;9.00;8.00;;;;;11.10;38.32;103388.19;2440937;28;45682;-82
2022/03/19 01:07:50;;;;;;;;;8.75;6.25;;;;;11.07;37.92;103378.53;2441195;28;45230;-82
2022/03/19 01:09:01;;;;;;;;;9.50;7.00;;;;;11.05;37.85;103377.66;2441023;28;46417;-82
2022/03/19 01:10:14;;;;;;;;;11.00;8.00;;;;;11.05;37.92;103379.38;2444440;28;45239;-82
2022/03/19 01:11:24;;;;;;;;;8.00;7.25;;;;;11.02;37.55;103383.75;2442169;28;46285;-82
2022/03/19 01:12:35;;;;;;;;;8.25;7.50;;;;;11.02;37.64;103378.50;2451050;28;45250;-82
2022/03/19 01:13:45;;;;;;;;;5.25;5.25;;;;;11.01;38.12;103382.00;2442833;27;45199;-82
2022/03/19 01:14:56;;;;;;;;;4.00;4.00;;;;;11.01;37.67;103375.88;2441108;28;45322;-82
2022/03/19 01:16:06;;;;;;;;;9.00;6.50;;;;;10.99;37.60;103373.19;2448303;27;46414;-82
2022/03/19 01:17:16;;;;;;;;;6.00;4.00;;;;;10.98;37.54;103376.72;2442859;28;44795;-82
2022/03/19 01:18:27;;;;;;;;;8.00;6.00;;;;;10.98;37.81;103375.84;2442680;28;45346;-82
2022/03/19 01:19:52;;;;;;;;;6.00;5.00;;;;;10.98;37.70;103375.84;2442917;28;45464;-82
2022/03/19 01:21:03;;;;;;;;;6.75;5.00;;;;;10.97;37.65;103374.94;2442930;28;45182;-82
2022/03/19 01:22:13;;;;;;;;;5.25;5.25;;;;;10.94;37.92;103369.66;2442796;28;45397;-82
2022/03/19 01:23:24;;;;;;;;;7.50;6.75;;;;;10.93;37.85;103367.91;2442647;28;46255;-82
2022/03/19 01:24:34;;;;;;;;;5.50;5.50;;;;;10.90;37.76;103365.25;2442899;28;44576;-82
2022/03/19 01:25:44;;;;;;;;;5.25;5.25;;;;;10.93;37.88;103377.53;2442636;28;45196;-82
2022/03/19 01:26:55;;;;;;;;;8.00;6.50;;;;;10.91;38.17;103367.03;2442859;28;45211;-82
2022/03/19 01:28:05;;;;;;;;;6.25;5.75;;;;;10.91;38.05;103367.88;2442374;28;46280;-88
2022/03/19 01:29:16;;;;;;;;;6.25;6.25;;;;;10.91;38.12;103375.75;2451613;28;45379;-85
2022/03/19 01:30:26;;;;;;;;;5.25;5.00;;;;;10.91;37.76;103374.91;2445962;27;46655;-85
2022/03/19 01:31:36;;;;;;;;;5.25;5.25;;;;;10.87;37.84;103371.34;2442724;28;45432;-82
2022/03/19 01:32:48;;;;;;;;;8.75;4.75;;;;;10.87;38.14;103367.84;2442692;28;45224;-82
2022/03/19 01:33:58;;;;;;;;;6.75;6.00;;;;;10.88;37.88;103369.63;2442965;28;45368;-82
2022/03/19 01:35:10;;;;;;;;;6.50;5.00;;;;;10.86;37.66;103372.25;2442386;28;46146;-83
2022/03/19 01:36:21;;;;;;;;;6.25;5.25;;;;;10.88;37.92;103372.25;2451325;28;45449;-83
2022/03/19 01:37:31;;;;;;;;;5.25;4.00;;;;;10.86;38.23;103366.09;2443310;27;45287;-83
2022/03/19 01:38:41;;;;;;;;;4.00;3.75;;;;;10.85;37.58;103364.31;2442754;28;45339;-83
2022/03/19 01:39:55;;;;;;;;;6.75;5.75;;;;;10.83;37.94;103366.06;2442618;28;45196;-83
2022/03/19 01:41:05;;;;;;;;;5.75;4.25;;;;;10.81;37.78;103368.69;2442626;28;44640;-83
2022/03/19 01:42:27;;;;;;;;;4.75;4.75;;;;;10.83;38.18;103368.69;2442470;28;45319;-83
2022/03/19 01:43:38;;;;;;;;;5.75;5.00;;;;;10.83;38.04;103366.94;2442358;28;44679;-83
2022/03/19 01:44:49;;;;;;;;;6.25;5.25;;;;;10.81;37.95;103363.44;2442473;28;46223;-83
2022/03/19 01:45:59;;;;;;;;;4.25;4.25;;;;;10.82;38.56;103359.91;2447144;28;44752;-83
2022/03/19 01:47:10;;;;;;;;;5.75;5.75;;;;;10.82;38.93;103365.16;2444200;28;45376;-83
2022/03/19 01:48:21;;;;;;;;;5.25;4.50;;;;;10.82;38.27;103361.66;2442551;28;45338;-82
2022/03/19 01:49:31;;;;;;;;;5.00;3.75;;;;;10.83;38.19;103369.59;2442388;28;46363;-82
2022/03/19 01:50:42;;;;;;;;;4.25;4.00;;;;;10.83;38.39;103366.06;2442772;28;45303;-88
2022/03/19 01:51:53;;;;;;;;;4.25;4.25;;;;;10.84;38.84;103362.56;2445524;28;47505;-87
2022/03/19 01:53:03;;;;;;;;;5.00;4.50;;;;;10.84;38.98;103367.84;2451566;28;45181;-87
2022/03/19 01:54:15;;;;;;;;;6.50;5.25;;;;;10.82;37.92;103359.03;2444476;28;48266;-88
2022/03/19 01:55:27;;;;;;;;;5.75;4.25;;;;;10.80;38.03;103362.53;2445284;28;45390;-89
2022/03/19 01:56:39;;;;;;;;;6.25;4.50;;;;;10.79;37.79;103363.41;2442404;28;45378;-87
2022/03/19 01:57:50;;;;;;;;;4.50;4.50;;;;;10.76;38.18;103355.50;2442377;28;45429;-87
2022/03/19 01:59:03;;;;;;;;;5.00;5.00;;;;;10.73;37.90;103352.84;2442488;28;45419;-87
2022/03/19 02:00:17;;;;;;;;;4.50;3.25;;;;;10.70;38.06;103350.16;2445584;28;45188;-87
2022/03/19 02:01:28;;;;;;;;;5.25;3.50;;;;;10.71;38.04;103358.94;2444933;28;47271;-86
2022/03/19 02:02:39;;;;;;;;;7.25;5.00;;;;;10.69;38.05;103354.53;2449423;28;45511;-87
2022/03/19 02:03:50;;;;;;;;;9.00;5.75;;;;;10.67;37.80;103361.53;2442401;28;45580;-88
2022/03/19 02:05:03;;;;;;;;;5.00;4.75;;;;;10.64;38.02;103360.66;2443154;28;44732;-88
2022/03/19 02:06:14;;;;;;;;;4.00;4.00;;;;;10.63;38.36;103359.75;2442384;28;46119;-87
2022/03/19 02:07:24;;;;;;;;;3.00;3.00;;;;;10.63;38.29;103358.88;2442336;28;44621;-87
2022/03/19 02:08:37;;;;;;;;;5.00;5.00;;;;;10.61;39.22;103364.13;2442381;28;45346;-83
2022/03/19 02:09:48;;;;;;;;;5.00;5.00;;;;;10.61;38.16;103356.25;2442414;28;44688;-82
2022/03/19 02:10:58;;;;;;;;;4.00;3.75;;;;;10.61;38.43;103360.63;2447943;28;45343;-82
2022/03/19 02:12:09;;;;;;;;;5.75;5.75;;;;;10.61;38.59;103355.34;2443345;27;45236;-82
2022/03/19 02:13:19;;;;;;;;;6.50;5.25;;;;;10.62;38.33;103352.72;2450157;28;46493;-83
2022/03/19 02:14:36;;;;;;;;;6.25;6.25;;;;;10.62;37.84;103351.88;2447621;27;44662;-83
2022/03/19 02:15:47;;;;;;;;;5.00;5.00;;;;;10.55;38.04;103343.91;2443909;27;48367;-83
2022/03/19 02:16:57;;;;;;;;;3.75;3.50;;;;;10.53;38.08;103347.38;2462170;27;45253;-83
2022/03/19 02:18:08;;;;;;;;;7.75;6.25;;;;;10.54;38.55;103355.28;2445939;27;46721;-87
2022/03/19 02:19:20;;;;;;;;;6.25;5.25;;;;;10.56;38.25;103352.69;2441859;28;45434;-87
2022/03/19 02:20:34;;;;;;;;;6.25;4.50;;;;;10.52;38.43;103350.91;2441430;28;45547;-87
2022/03/19 02:21:49;;;;;;;;;6.00;5.75;;;;;10.49;38.59;103343.84;2442452;28;44656;-87
2022/03/19 02:25:58;;;;;;;;;5.00;5.00;;;;;10.43;38.38;103339.38;2442234;28;45500;-87
2022/03/19 02:27:08;;;;;;;;;5.00;4.25;;;;;10.43;39.07;103336.75;2448693;28;45283;-85
2022/03/19 02:28:18;;;;;;;;;5.00;5.00;;;;;10.44;37.99;103342.91;2450159;28;48117;-86
2022/03/19 02:29:29;;;;;;;;;6.50;6.00;;;;;10.42;38.68;103336.75;2441773;28;45394;-86
2022/03/19 02:30:42;;;;;;;;;5.50;5.50;;;;;10.41;38.98;103338.50;2448668;28;45355;-86
2022/03/19 02:32:05;;;;;;;;;6.50;4.25;;;;;10.41;39.18;103334.97;2451337;27;45184;-87
2022/03/19 02:33:15;;;;;;;;;7.25;6.50;;;;;10.41;38.65;103333.25;2445696;28;47867;-86
2022/03/19 02:34:26;;;;;;;;;5.75;5.75;;;;;10.40;38.64;103320.06;2449968;28;45193;-86
2022/03/19 02:35:37;;;;;;;;;5.25;3.75;;;;;10.42;38.98;103334.13;2444874;27;45487;-86
2022/03/19 02:36:48;;;;;;;;;7.00;7.00;;;;;10.40;38.52;103325.31;2444506;28;45533;-83
2022/03/19 02:37:58;;;;;;;;;5.75;5.75;;;;;10.37;38.58;103320.91;2451404;28;46417;-82
2022/03/19 02:39:16;;;;;;;;;8.50;6.25;;;;;10.38;38.69;103317.44;2448604;27;45220;-82
2022/03/19 02:40:27;;;;;;;;;4.25;4.25;;;;;10.39;38.38;103319.19;2445198;27;45655;-82
2022/03/19 02:41:44;;;;;;;;;7.75;6.00;;;;;10.37;38.49;103318.28;2442283;28;45315;-82
2022/03/19 02:42:56;;;;;;;;;6.00;5.50;;;;;10.39;38.62;103321.84;2441741;28;45572;-82
2022/03/19 02:44:06;;;;;;;;;5.00;5.00;;;;;10.35;38.87;103312.13;2442282;28;45371;-82
2022/03/19 02:45:18;;;;;;;;;10.25;8.00;;;;;10.34;38.80;103311.28;2441976;28;45350;-82
2022/03/19 02:46:49;;;;;;;;;7.00;7.00;;;;;10.37;38.54;103314.78;2442177;28;45210;-82
2022/03/19 02:47:59;;;;;;;;;7.00;5.75;;;;;10.34;38.67;103311.28;2442115;28;45255;-84
2022/03/19 02:49:10;;;;;;;;;7.00;6.50;;;;;10.31;38.96;103308.59;2443801;28;45468;-83
2022/03/19 02:50:21;;;;;;;;;8.50;6.00;;;;;10.33;38.75;103313.88;2445793;28;45429;-84
2022/03/19 02:51:34;;;;;;;;;5.25;5.25;;;;;10.29;38.94;103309.47;2451019;27;45307;-84
2022/03/19 02:52:44;;;;;;;;;10.75;7.75;;;;;10.28;38.55;103305.94;2442029;28;45352;-85
2022/03/19 02:53:54;;;;;;;;;9.50;8.00;;;;;10.22;38.83;103298.88;2442040;28;45303;-89
2022/03/19 02:55:05;;;;;;;;;6.00;5.50;;;;;10.20;38.98;103300.59;2440882;28;47127;-89
2022/03/19 02:56:15;;;;;;;;;3.00;2.00;;;;;10.19;39.02;103300.59;2441558;28;45394;-90
2022/03/19 02:57:26;;;;;;;;;8.25;7.00;;;;;10.19;39.07;103300.59;2447324;28;46184;-88
2022/03/19 02:58:36;;;;;;;;;8.00;6.50;;;;;10.18;39.26;103299.72;2450149;27;45414;-84
2022/03/19 02:59:46;;;;;;;;;9.75;8.75;;;;;10.17;38.93;103297.97;2442100;28;45342;-84
2022/03/19 03:00:57;;;;;;;;;6.50;4.25;;;;;10.17;38.91;103297.06;2442239;28;45270;-83
2022/03/19 03:02:08;;;;;;;;;5.75;4.00;;;;;10.13;39.19;103302.28;2451828;28;45321;-87
2022/03/19 03:03:18;;;;;;;;;8.75;6.50;;;;;10.12;38.74;103300.50;2443717;28;45326;-87
2022/03/19 03:04:29;;;;;;;;;8.50;7.50;;;;;10.13;38.91;103298.78;2443782;28;48038;-86
2022/03/19 03:05:39;;;;;;;;;10.75;7.00;;;;;10.11;39.14;103306.66;2441193;28;45349;-86
2022/03/19 03:06:52;;;;;;;;;8.75;8.75;;;;;10.10;39.06;103302.25;2447650;28;45376;-91
2022/03/19 03:08:04;;;;;;;;;7.00;5.00;;;;;10.11;39.58;103300.50;2442306;28;45200;-87
2022/03/19 03:09:17;;;;;;;;;9.25;7.00;;;;;10.12;39.49;103300.50;2447697;28;45239;-86
2022/03/19 03:10:28;;;;;;;;;10.00;8.25;;;;;10.15;39.44;103299.66;2444814;27;45358;-83
2022/03/19 03:11:40;;;;;;;;;12.75;10.00;;;;;10.17;39.55;103302.34;2446446;27;46665;-83
2022/03/19 03:12:50;;;;;;;;;7.75;7.50;;;;;10.10;39.16;103294.38;2442356;28;44765;-83
2022/03/19 03:14:00;;;;;;;;;10.50;6.25;;;;;10.10;39.57;103304.88;2451548;27;45354;-83
2022/03/19 03:15:11;;;;;;;;;9.50;6.50;;;;;10.12;39.09;103297.03;2443809;27;45380;-83
2022/03/19 03:16:21;;;;;;;;;9.75;8.25;;;;;10.07;39.79;103297.00;2445259;27;45438;-82
2022/03/19 03:17:33;;;;;;;;;10.75;10.75;;;;;10.09;39.89;103305.75;2441980;28;44586;-83
2022/03/19 03:18:44;;;;;;;;;9.00;8.00;;;;;10.09;39.80;103299.63;2443396;28;45658;-83
2022/03/19 03:19:54;;;;;;;;;9.00;8.25;;;;;10.09;40.01;103299.63;2444402;27;45246;-82
2022/03/19 03:21:05;;;;;;;;;9.50;8.75;;;;;10.13;40.30;103301.41;2450813;28;46261;-82
2022/03/19 03:22:15;;;;;;;;;8.50;8.50;;;;;10.13;40.08;103302.28;2445051;28;45234;-86
2022/03/19 03:23:26;;;;;;;;;11.25;8.75;;;;;10.10;39.55;103301.41;2441012;28;47463;-84
2022/03/19 03:24:36;;;;;;;;;13.25;10.00;;;;;10.10;39.31;103293.50;2441295;28;45342;-83
2022/03/19 03:25:47;;;;;;;;;9.50;9.25;;;;;10.10;39.79;103293.50;2441007;28;48332;-85
2022/03/19 03:26:57;;;;;;;;;14.00;11.25;;;;;10.05;39.33;103288.19;2436644;28;45364;-83
2022/03/19 03:28:07;;;;;;;;;14.50;10.50;;;;;10.04;39.61;103288.19;2440885;28;45358;-81
2022/03/19 03:29:18;;;;;;;;;8.00;7.75;;;;;10.06;40.18;103289.06;2448120;28;45290;-81
2022/03/19 03:30:28;;;;;;;;;12.00;8.25;;;;;10.01;39.80;103286.41;2444410;27;46613;-83
2022/03/19 03:31:38;;;;;;;;;12.00;10.00;;;;;10.00;39.98;103289.91;2441837;28;45266;-84
2022/03/19 03:32:49;;;;;;;;;12.00;12.00;;;;;10.00;40.40;103284.66;2441596;28;46090;-84
2022/03/19 03:33:59;;;;;;;;;11.75;7.75;;;;;9.98;40.11;103284.63;2441810;28;45421;-84
2022/03/19 03:35:10;;;;;;;;;13.00;9.00;;;;;9.97;40.26;103277.63;2441399;28;45410;-84
2022/03/19 03:36:21;;;;;;;;;8.75;7.00;;;;;9.98;40.38;103281.09;2447434;28;45205;-81
2022/03/19 03:37:32;;;;;;;;;11.25;10.25;;;;;9.97;40.60;103279.34;2444032;27;45243;-82
2022/03/19 03:38:42;;;;;;;;;11.75;10.00;;;;;9.98;40.23;103281.09;2441602;28;45221;-82
2022/03/19 03:39:52;;;;;;;;;13.25;10.00;;;;;9.94;39.90;103268.81;2441297;28;45258;-82
2022/03/19 03:41:03;;;;;;;;;9.75;9.00;;;;;9.93;40.10;103277.53;2446348;28;45173;-82
2022/03/19 03:42:13;;;;;;;;;10.00;9.75;;;;;9.92;40.17;103273.16;2450337;27;46494;-82
2022/03/19 03:43:24;;;;;;;;;12.25;9.75;;;;;9.93;40.29;103281.06;2441475;28;45287;-82
2022/03/19 03:44:34;;;;;;;;;11.75;11.00;;;;;9.89;40.57;103267.03;2441383;28;45542;-82
2022/03/19 03:45:44;;;;;;;;;13.50;10.50;;;;;9.92;40.29;103270.53;2442127;28;45269;-82
2022/03/19 03:46:55;;;;;;;;;15.75;10.75;;;;;9.89;40.37;103266.13;2450574;28;46151;-82
2022/03/19 03:48:05;;;;;;;;;11.75;10.50;;;;;9.91;40.62;103269.66;2441497;28;45262;-82
2022/03/19 03:49:15;;;;;;;;;14.75;10.25;;;;;9.92;40.90;103278.44;2447248;28;45215;-81
2022/03/19 03:50:27;;;;;;;;;12.75;11.50;;;;;9.92;40.56;103281.03;2451322;27;45270;-81
2022/03/19 03:51:38;;;;;;;;;14.25;10.50;;;;;9.89;40.43;103279.28;2451330;27;45549;-81
2022/03/19 03:52:49;;;;;;;;;10.00;9.00;;;;;9.83;40.80;103279.22;2451408;27;44709;-81
2022/03/19 03:53:59;;;;;;;;;14.00;11.75;;;;;9.81;40.75;103279.19;2451257;28;46209;-81
2022/03/19 03:55:10;;;;;;;;;9.25;9.00;;;;;9.84;40.87;103287.09;2451171;27;45195;-81
2022/03/19 03:56:21;;;;;;;;;11.25;11.00;;;;;9.83;40.81;103276.59;2450474;27;45393;-81
2022/03/19 03:57:34;;;;;;;;;14.75;11.75;;;;;9.83;40.56;103276.59;2449332;27;45278;-81
2022/03/19 03:58:45;;;;;;;;;12.50;10.25;;;;;9.81;41.07;103270.41;2441246;28;45252;-81
2022/03/19 03:59:56;;;;;;;;;13.00;13.00;;;;;9.82;40.58;103278.31;2450263;28;45418;-81
2022/03/19 04:01:07;;;;;;;;;11.25;10.50;;;;;9.79;40.59;103273.91;2451248;27;46389;-81
2022/03/19 04:02:17;;;;;;;;;11.75;10.50;;;;;9.79;40.65;103286.16;2451429;27;45431;-82
2022/03/19 04:03:28;;;;;;;;;12.00;11.25;;;;;9.78;41.26;103273.88;2451343;28;45370;-82
2022/03/19 04:04:38;;;;;;;;;13.75;12.50;;;;;9.79;41.20;103270.41;2446653;27;45326;-82
2022/03/19 04:05:49;;;;;;;;;15.25;12.50;;;;;9.75;40.93;103266.00;2441315;28;45321;-82
2022/03/19 04:06:59;;;;;;;;;13.25;12.00;;;;;9.76;41.02;103270.34;2441675;28;44741;-82
2022/03/19 04:08:10;;;;;;;;;13.00;11.50;;;;;9.74;40.85;103272.09;2441579;28;46323;-82
2022/03/19 04:09:21;;;;;;;;;10.50;9.50;;;;;9.73;41.12;103271.19;2451011;28;45370;-82
2022/03/19 04:10:31;;;;;;;;;17.50;12.50;;;;;9.75;40.84;103279.13;2447574;27;45411;-82
2022/03/19 04:11:42;;;;;;;;;14.00;12.50;;;;;9.72;41.34;103269.47;2448973;28;44638;-82
2022/03/19 04:12:52;;;;;;;;;9.75;7.25;;;;;9.74;41.10;103283.50;2441944;28;45350;-81
2022/03/19 04:14:03;;;;;;;;;11.50;9.25;;;;;9.73;41.25;103280.84;2442716;27;45447;-81
2022/03/19 04:15:14;;;;;;;;;15.00;11.00;;;;;9.70;40.88;103278.19;2445146;28;45208;-81
2022/03/19 04:16:24;;;;;;;;;12.75;11.50;;;;;9.69;41.13;103282.53;2451478;27;45357;-82
2022/03/19 04:17:35;;;;;;;;;14.75;14.50;;;;;9.68;41.37;103284.28;2441444;28;46273;-82
2022/03/19 04:18:45;;;;;;;;;11.75;9.25;;;;;9.68;41.03;103272.91;2440594;28;44684;-83
2022/03/19 04:19:55;;;;;;;;;11.00;11.00;;;;;9.67;40.98;103276.41;2440790;28;45550;-84
2022/03/19 04:21:06;;;;;;;;;15.50;13.00;;;;;9.67;41.39;103276.41;2441495;28;45209;-83
2022/03/19 04:22:16;;;;;;;;;14.50;13.00;;;;;9.65;41.02;103271.16;2441164;28;45573;-82
2022/03/19 04:23:26;;;;;;;;;13.75;13.25;;;;;9.66;41.22;103275.50;2441496;28;45417;-82
2022/03/19 04:24:37;;;;;;;;;14.50;12.00;;;;;9.63;41.57;103269.34;2443487;28;45353;-82
2022/03/19 04:25:48;;;;;;;;;13.75;13.00;;;;;9.64;41.70;103273.72;2441508;28;44716;-82
2022/03/19 04:26:58;;;;;;;;;15.75;12.50;;;;;9.59;41.55;103273.69;2441405;28;46233;-82
2022/03/19 04:28:11;;;;;;;;;15.25;12.25;;;;;9.57;41.32;103267.53;2441327;28;45445;-82
2022/03/19 04:29:22;;;;;;;;;16.00;14.75;;;;;9.53;41.42;103269.22;2441354;28;46454;-82
2022/03/19 04:30:32;;;;;;;;;16.25;14.00;;;;;9.52;41.61;103267.47;2441376;28;45207;-82
2022/03/19 04:31:43;;;;;;;;;15.00;10.00;;;;;9.53;41.45;103268.38;2441219;28;46335;-82
2022/03/19 04:33:02;;;;;;;;;11.50;11.00;;;;;9.53;42.15;103269.22;2441362;28;44616;-82
2022/03/19 04:34:12;;;;;;;;;16.75;14.75;;;;;9.54;41.74;103275.34;2441216;28;45528;-83
2022/03/19 04:36:54;;;;;;;;;17.75;16.25;;;;;9.54;41.92;103275.34;2441178;28;45232;-82
2022/03/19 04:38:07;;;;;;;;;19.00;15.25;;;;;9.56;41.81;103279.78;2444095;28;44604;-83
2022/03/19 04:39:17;;;;;;;;;16.25;13.75;;;;;9.54;42.20;103278.88;2443315;28;47281;-84
2022/03/19 04:40:27;;;;;;;;;17.50;14.50;;;;;9.56;42.22;103277.16;2450698;28;45321;-84
2022/03/19 04:41:38;;;;;;;;;15.25;14.25;;;;;9.56;41.68;103281.50;2450870;27;46181;-84
2022/03/19 04:42:48;;;;;;;;;17.75;16.75;;;;;9.55;42.04;103277.13;2450762;28;45357;-84
2022/03/19 04:44:00;;;;;;;;;17.75;17.50;;;;;9.55;41.89;103279.75;2450977;27;46486;-83
2022/03/19 04:45:10;;;;;;;;;15.75;15.00;;;;;9.55;42.16;103277.13;2442780;27;44685;-83
2022/03/19 04:46:21;;;;;;;;;16.00;15.75;;;;;9.54;41.87;103276.25;2440191;28;46967;-83
2022/03/19 04:47:32;;;;;;;;;19.00;18.00;;;;;9.52;42.42;103274.47;2440875;28;45262;-83
2022/03/19 04:48:45;;;;;;;;;18.75;14.00;;;;;9.53;42.46;103279.72;2441130;28;46159;-83
2022/03/19 04:49:56;;;;;;;;;17.50;15.25;;;;;9.53;42.28;103271.00;2441413;28;44823;-82
2022/03/19 04:51:06;;;;;;;;;16.50;15.25;;;;;9.53;42.04;103271.84;2440308;28;46031;-82
2022/03/19 04:52:17;;;;;;;;;19.00;15.00;;;;;9.53;42.37;103277.09;2449600;28;44753;-82
2022/03/19 04:53:27;;;;;;;;;21.75;14.75;;;;;9.52;42.50;103277.97;2447160;27;46477;-82
2022/03/19 04:54:38;;;;;;;;;24.25;20.50;;;;;9.56;42.54;103278.88;2449303;27;45338;-82
2022/03/19 04:55:49;;;;;;;;;18.00;16.25;;;;;9.54;42.69;103278.00;2441090;28;45333;-82
2022/03/19 04:57:01;;;;;;;;;20.75;18.50;;;;;9.55;42.67;103277.13;2441123;28;45220;-82
2022/03/19 04:58:11;;;;;;;;;20.50;17.75;;;;;9.55;42.35;103277.13;2442087;28;45505;-82
2022/03/19 04:59:21;;;;;;;;;24.25;19.25;;;;;9.55;42.46;103282.38;2451036;27;45222;-82
2022/03/19 05:00:32;;;;;;;;;22.00;18.00;;;;;9.56;42.95;103273.63;2442878;27;45304;-82
2022/03/19 05:01:43;;;;;;;;;21.25;18.50;;;;;9.54;42.65;103278.88;2445376;28;44561;-83
2022/03/19 05:02:53;;;;;;;;;24.00;17.25;;;;;9.55;42.53;103271.88;2450781;27;46359;-83
2022/03/19 05:04:04;;;;;;;;;18.00;17.00;;;;;9.55;42.90;103271.88;2443892;28;45220;-82
2022/03/19 05:05:14;;;;;;;;;22.75;17.50;;;;;9.53;43.17;103273.63;2440816;28;45259;-82
2022/03/19 05:06:25;;;;;;;;;21.50;20.50;;;;;9.53;42.94;103273.63;2441139;28;45210;-82
2022/03/19 05:07:35;;;;;;;;;21.50;15.00;;;;;9.52;42.65;103271.84;2441174;28;45221;-82
2022/03/19 05:08:46;;;;;;;;;26.75;19.75;;;;;9.52;42.65;103270.09;2441380;28;45209;-82
2022/03/19 05:11:29;;;;;;;;;25.00;18.25;;;;;9.49;43.07;103262.19;2439884;28;45347;-82
2022/03/19 05:12:41;;;;;;;;;29.00;23.75;;;;;9.49;43.14;103263.91;2448158;28;45531;-82
2022/03/19 05:13:53;;;;;;;;;22.25;19.75;;;;;9.45;43.59;103266.53;2450278;28;45238;-82
2022/03/19 05:15:04;;;;;;;;;26.75;20.75;;;;;9.45;43.12;103266.53;2443188;27;45421;-82
2022/03/19 05:16:15;;;;;;;;;25.00;22.00;;;;;9.49;42.82;103264.81;2443518;27;45267;-82
2022/03/19 05:17:26;;;;;;;;;20.50;18.50;;;;;9.47;43.58;103268.28;2440876;28;45438;-82
2022/03/19 05:18:37;;;;;;;;;18.75;17.50;;;;;9.47;43.20;103270.91;2441027;28;45505;-82
2022/03/19 05:19:47;;;;;;;;;28.75;20.50;;;;;9.46;43.55;103272.63;2444080;28;45386;-81
2022/03/19 05:20:58;;;;;;;;;21.25;16.75;;;;;9.44;43.48;103264.75;2450576;27;45287;-81
2022/03/19 05:22:08;;;;;;;;;25.00;22.00;;;;;9.45;43.87;103270.88;2444213;28;46182;-81
2022/03/19 05:23:19;;;;;;;;;27.75;19.00;;;;;9.45;43.48;103279.66;2444499;27;44664;-81
2022/03/19 05:24:29;;;;;;;;;30.50;26.25;;;;;9.45;43.40;103278.75;2440769;28;46281;-80
2022/03/19 05:25:40;;;;;;;;;26.75;25.25;;;;;9.45;43.54;103273.50;2441108;28;44727;-80
2022/03/19 05:26:50;;;;;;;;;26.50;26.25;;;;;9.39;43.77;103263.81;2440732;28;46201;-81
2022/03/19 05:28:00;;;;;;;;;22.00;21.25;;;;;9.40;43.56;103273.47;2440691;28;44736;-81
2022/03/19 05:29:11;;;;;;;;;25.25;22.50;;;;;9.37;43.70;103273.41;2440786;28;46660;-81
2022/03/19 05:30:22;;;;;;;;;32.00;25.00;;;;;9.37;43.37;103278.66;2441043;28;45342;-81
2022/03/19 05:31:33;;;;;;;;;22.75;18.00;;;;;9.36;44.23;103273.41;2440846;28;45396;-82
2022/03/19 05:32:44;;;;;;;;;33.75;24.50;;;;;9.34;44.08;103278.59;2445701;28;45271;-81
2022/03/19 05:35:23;;;;;;;;;26.75;22.75;;;;;9.32;43.74;103275.97;2440857;28;44609;-81
2022/03/19 05:36:33;;;;;;;;;26.00;22.25;;;;;9.32;44.16;103267.22;2440954;28;45325;-80